createdAt,value
2019-05-12T00:02:00.923Z,92.51
2019-05-12T00:04:31.327Z,92.54
2019-05-12T00:07:01.783Z,92.91
2019-05-12T00:09:32.226Z,93.00
2019-05-12T00:12:02.815Z,93.08
2019-05-12T00:14:33.237Z,93.12
2019-05-12T00:17:03.685Z,93.12
2019-05-12T00:19:34.085Z,93.11
2019-05-12T00:22:04.568Z,93.13
2019-05-12T00:24:34.973Z,93.67
2019-05-12T00:27:12.987Z,93.42
2019-05-12T00:29:43.418Z,93.14
2019-05-12T00:32:13.881Z,93.34
2019-05-12T00:34:44.330Z,93.87
2019-05-12T00:37:14.790Z,94.22
2019-05-12T00:39:47.710Z,94.38
2019-05-12T00:42:18.357Z,94.10
2019-05-12T00:44:49.801Z,93.94
2019-05-12T00:47:21.252Z,93.87
2019-05-12T00:49:54.138Z,94.58
2019-05-12T00:52:28.195Z,94.46
2019-05-12T00:54:59.703Z,94.19
2019-05-12T00:57:31.461Z,93.90
2019-05-12T01:00:05.777Z,93.97
2019-05-12T01:02:38.971Z,93.94
2019-05-12T01:05:13.285Z,94.16
2019-05-12T01:07:48.194Z,94.48
2019-05-12T01:10:20.082Z,95.02
2019-05-12T01:12:51.840Z,95.18
2019-05-12T01:15:23.390Z,95.45
2019-05-12T01:17:58.570Z,96.10
2019-05-12T01:20:29.878Z,97.19
2019-05-12T01:23:11.365Z,97.08
2019-05-12T01:25:43.224Z,97.91
2019-05-12T01:28:15.187Z,98.25
2019-05-12T01:30:48.276Z,97.77
2019-05-12T01:33:22.595Z,97.68
2019-05-12T01:35:54.864Z,97.79
2019-05-12T01:38:28.771Z,97.67
2019-05-12T01:41:17.974Z,97.92
2019-05-12T01:44:05.772Z,98.16
2019-05-12T01:46:53.303Z,97.99
2019-05-12T01:49:41.547Z,98.13
2019-05-12T01:52:29.794Z,98.42
2019-05-12T01:55:18.597Z,98.67
2019-05-12T01:58:08.354Z,98.90
2019-05-12T02:00:59.004Z,98.59
2019-05-12T02:03:48.299Z,98.67
2019-05-12T02:06:30.298Z,98.92
2019-05-12T02:09:14.445Z,99.03
2019-05-12T02:11:58.394Z,98.77
2019-05-12T02:14:31.380Z,98.86
2019-05-12T02:17:02.930Z,98.99
2019-05-12T02:19:34.793Z,98.93
2019-05-12T02:22:09.723Z,98.97
2019-05-12T02:24:41.276Z,99.55
2019-05-12T02:27:13.238Z,99.79
2019-05-12T02:29:45.305Z,99.55
2019-05-12T02:32:17.274Z,99.50
2019-05-12T02:34:48.926Z,99.47
2019-05-12T02:37:21.092Z,98.91
2019-05-12T02:39:55.554Z,98.29
2019-05-12T02:42:26.247Z,97.80
2019-05-12T02:44:59.233Z,97.55
2019-05-12T02:47:34.422Z,97.66
2019-05-12T02:50:09.199Z,97.80
2019-05-12T02:52:44.333Z,97.76
2019-05-12T02:55:16.505Z,98.33
2019-05-12T02:57:50.717Z,98.65
2019-05-12T03:00:24.224Z,98.55
2019-05-12T03:02:59.666Z,98.75
2019-05-12T03:05:34.878Z,99.21
2019-05-12T03:08:05.751Z,99.36
2019-05-12T03:10:37.500Z,99.71
2019-05-12T03:13:09.255Z,99.24
2019-05-12T03:15:41.020Z,99.03
2019-05-12T03:18:14.650Z,99.21
2019-05-12T03:20:46.169Z,99.64
2019-05-12T03:23:19.088Z,99.41
2019-05-12T03:25:54.442Z,99.39
2019-05-12T03:28:26.153Z,99.45
2019-05-12T03:31:23.550Z,99.31
2019-05-12T03:33:59.872Z,99.23
2019-05-12T03:36:34.541Z,99.38
2019-05-12T03:39:04.235Z,99.48
2019-05-12T03:41:37.918Z,99.36
2019-05-12T03:44:09.981Z,99.08
2019-05-12T03:46:45.628Z,99.04
2019-05-12T03:49:17.078Z,98.82
2019-05-12T03:51:48.941Z,98.78
2019-05-12T03:54:24.348Z,98.92
2019-05-12T03:56:58.804Z,98.74
2019-05-12T03:59:30.361Z,98.27
2019-05-12T04:02:04.693Z,97.68
2019-05-12T04:04:36.950Z,97.17
2019-05-12T04:07:08.707Z,96.71
2019-05-12T04:09:40.177Z,97.52
2019-05-12T04:12:14.840Z,97.63
2019-05-12T04:14:45.723Z,97.50
2019-05-12T04:17:28.640Z,97.00
2019-05-12T04:20:45.272Z,96.66
2019-05-12T04:23:27.556Z,95.71
2019-05-12T04:26:10.968Z,94.93
2019-05-12T04:28:39.980Z,94.49
2019-05-12T04:31:15.837Z,94.68
2019-05-12T04:33:59.616Z,95.19
2019-05-12T04:37:17.517Z,94.86
2019-05-12T04:40:14.919Z,94.69
2019-05-12T04:42:44.849Z,94.31
2019-05-12T04:45:16.025Z,93.79
2019-05-12T04:47:48.109Z,93.29
2019-05-12T04:50:38.087Z,92.47
2019-05-12T04:53:09.851Z,91.85
2019-05-12T04:55:44.611Z,91.40
2019-05-12T04:58:17.152Z,90.44
2019-05-12T05:00:48.802Z,89.00
2019-05-12T05:03:20.767Z,86.00
2019-05-12T05:05:54.951Z,87.56
2019-05-12T05:08:26.405Z,87.00
2019-05-12T05:10:58.189Z,87.19
2019-05-12T05:13:48.174Z,87.03
2019-05-12T05:18:59.165Z,86.49
2019-05-12T05:21:30.923Z,86.73
2019-05-12T05:24:04.221Z,84.88
2019-05-12T05:26:38.253Z,84.09
2019-05-12T05:29:13.374Z,83.82
2019-05-12T05:31:44.815Z,82.17
2019-05-12T05:37:20.283Z,81.92
2019-05-12T05:39:49.535Z,80.32
2019-05-12T05:42:22.187Z,80.00
2019-05-12T05:45:10.012Z,79.09
2019-05-12T05:47:41.135Z,77.95
2019-05-12T05:50:24.912Z,76.60
2019-05-12T05:52:58.170Z,77.08
2019-05-12T05:55:35.958Z,74.27
2019-05-12T05:58:10.707Z,74.41
2019-05-12T06:00:43.624Z,74.93
2019-05-12T06:03:23.313Z,74.24
2019-05-12T06:05:53.511Z,74.55
2019-05-12T06:08:27.866Z,73.11
2019-05-12T06:10:59.219Z,73.02
2019-05-12T06:13:32.381Z,72.16
2019-05-12T06:16:05.191Z,71.53
2019-05-12T06:18:37.255Z,70.66
2019-05-12T06:21:09.015Z,70.97
2019-05-12T06:23:43.488Z,71.00
2019-05-12T06:26:20.955Z,70.16
2019-05-12T06:28:50.639Z,71.18
2019-05-12T06:31:25.209Z,70.81
2019-05-12T06:34:13.700Z,69.88
2019-05-12T06:36:39.942Z,70.78
2019-05-12T06:39:23.434Z,68.31
2019-05-12T06:42:02.010Z,69.19
2019-05-12T06:44:43.709Z,67.89
2019-05-12T06:47:21.073Z,68.40
2019-05-12T06:49:57.141Z,68.22
2019-05-12T06:52:29.711Z,64.43
2019-05-12T06:55:03.774Z,64.69
2019-05-12T06:57:40.142Z,63.46
2019-05-12T07:00:22.324Z,62.70
2019-05-12T07:03:04.245Z,62.31
2019-05-12T07:09:03.452Z,61.12
2019-05-12T07:18:23.250Z,62.00
2019-05-12T07:27:16.235Z,58.64
2019-05-12T07:27:36.789Z,60.93
2019-05-12T08:00:25.180Z,58.26
2019-05-12T08:15:53.273Z,58.81
2019-05-12T08:18:37.045Z,58.28
2019-05-12T08:21:49.409Z,58.19
2019-05-12T08:27:45.271Z,57.29
2019-05-12T08:30:57.012Z,56.39
2019-05-12T08:33:34.540Z,58.10
2019-05-12T08:36:52.903Z,56.33
2019-05-12T08:42:26.373Z,55.71
2019-05-12T08:44:58.745Z,55.80
2019-05-12T08:47:38.983Z,54.58
2019-05-12T09:03:06.039Z,55.96
2019-05-12T09:09:16.138Z,55.08
2019-05-12T09:11:47.180Z,54.24
2019-05-12T09:14:17.631Z,54.30
2019-05-12T09:16:48.064Z,56.11
2019-05-12T09:19:23.935Z,55.17
2019-05-12T09:21:50.637Z,57.00
2019-05-12T09:24:25.326Z,57.22
2019-05-12T09:26:53.838Z,57.09
2019-05-12T09:29:25.256Z,55.87
2019-05-12T09:31:59.354Z,57.02
2019-05-12T09:34:29.331Z,57.22
2019-05-12T09:37:01.129Z,58.04
2019-05-12T09:51:46.051Z,59.02
2019-05-12T09:54:16.641Z,58.11
2019-05-12T09:56:49.881Z,58.42
2019-05-12T09:59:23.017Z,58.09
2019-05-12T10:01:51.386Z,57.10
2019-05-12T10:04:22.646Z,60.25
2019-05-12T10:06:53.547Z,58.71
2019-05-12T10:09:24.470Z,59.57
2019-05-12T10:12:00.547Z,59.56
2019-05-12T10:14:27.224Z,59.13
2019-05-12T10:16:57.696Z,59.07
2019-05-12T10:19:28.124Z,59.68
2019-05-12T10:21:59.669Z,58.96
2019-05-12T10:24:34.425Z,60.52
2019-05-12T10:27:03.791Z,58.53
2019-05-12T10:29:34.376Z,58.28
2019-05-12T10:32:04.850Z,57.36
2019-05-12T10:34:40.131Z,56.28
2019-05-12T10:37:07.465Z,57.17
2019-05-12T10:39:37.892Z,56.31
2019-05-12T10:42:08.352Z,55.75
2019-05-12T10:44:40.782Z,56.99
2019-05-12T10:47:10.897Z,55.00
2019-05-12T10:49:41.291Z,54.32
2019-05-12T10:52:13.804Z,53.96
2019-05-12T10:54:43.879Z,50.94
2019-05-12T10:57:14.335Z,50.57
2019-05-12T10:59:48.458Z,52.28
2019-05-12T11:02:20.389Z,52.01
2019-05-12T11:04:49.372Z,50.53
2019-05-12T11:07:22.865Z,50.65
2019-05-12T11:09:54.214Z,48.36
2019-05-12T11:12:28.919Z,47.66
2019-05-12T11:14:56.248Z,48.81
2019-05-12T11:17:29.981Z,48.21
2019-05-12T11:20:00.592Z,49.03
2019-05-12T11:22:33.268Z,48.36
2019-05-12T11:25:04.355Z,49.47
2019-05-12T11:27:34.893Z,49.86
2019-05-12T11:30:06.922Z,48.74
2019-05-12T11:32:38.019Z,46.38
2019-05-12T11:35:08.900Z,45.58
2019-05-12T11:37:39.358Z,42.84
2019-05-12T11:40:09.857Z,42.09
2019-05-12T11:42:40.321Z,44.07
2019-05-12T11:45:10.927Z,43.43
2019-05-12T11:47:41.360Z,41.19
2019-05-12T11:50:13.244Z,41.50
2019-05-12T11:52:45.942Z,40.20
2019-05-12T11:55:15.910Z,39.46
2019-05-12T11:57:46.388Z,36.82
2019-05-12T12:00:18.825Z,37.03
2019-05-12T12:02:49.338Z,35.40
2019-05-12T12:05:20.662Z,36.04
2019-05-12T12:07:52.914Z,37.63
2019-05-12T12:10:23.482Z,37.18
2019-05-12T12:12:54.060Z,39.82
2019-05-12T12:15:26.438Z,36.50
2019-05-12T12:17:56.729Z,36.53
2019-05-12T12:20:27.210Z,38.38
2019-05-12T12:23:00.169Z,40.73
2019-05-12T12:25:33.876Z,41.42
2019-05-12T12:28:04.358Z,40.70
2019-05-12T12:30:35.066Z,39.28
2019-05-12T12:33:05.573Z,40.32
2019-05-12T12:35:35.978Z,40.47
2019-05-12T12:38:06.503Z,39.78
2019-05-12T12:40:36.916Z,43.29
2019-05-12T12:43:08.248Z,42.00
2019-05-12T12:45:40.781Z,45.17
2019-05-12T12:48:13.567Z,43.05
2019-05-12T12:50:44.550Z,43.56
2019-05-12T12:53:15.092Z,43.22
2019-05-12T12:55:46.987Z,43.46
2019-05-12T12:58:21.133Z,44.64
2019-05-12T13:00:54.515Z,44.77
2019-05-12T13:03:27.708Z,46.32
2019-05-12T13:05:54.531Z,48.46
2019-05-12T13:08:25.005Z,51.02
2019-05-12T13:10:55.414Z,55.90
2019-05-12T13:13:25.961Z,58.91
2019-05-12T13:15:56.393Z,61.79
2019-05-12T13:18:33.024Z,63.58
2019-05-12T13:20:59.001Z,66.44
2019-05-12T13:23:37.986Z,67.49
2019-05-12T13:26:04.126Z,71.54
2019-05-12T13:28:34.237Z,73.75
2019-05-12T13:31:09.020Z,74.02
2019-05-12T13:33:36.977Z,72.56
2019-05-12T13:36:07.392Z,73.59
2019-05-12T13:38:40.384Z,72.53
2019-05-12T13:41:17.949Z,69.71
2019-05-12T13:43:42.136Z,68.86
2019-05-12T13:46:12.541Z,70.11
2019-05-12T13:48:43.401Z,70.69
2019-05-12T13:51:15.786Z,68.73
2019-05-12T13:53:50.122Z,69.87
2019-05-12T13:56:19.227Z,68.07
2019-05-12T13:58:50.290Z,69.62
2019-05-12T14:01:21.043Z,69.97
2019-05-12T14:03:53.604Z,70.57
2019-05-12T14:06:31.861Z,71.02
2019-05-12T14:08:56.781Z,71.99
2019-05-12T14:11:27.230Z,72.49
2019-05-12T14:13:57.761Z,71.25
2019-05-12T14:16:28.186Z,71.13
2019-05-12T14:19:00.430Z,70.97
2019-05-12T14:21:33.151Z,73.19
2019-05-12T14:24:03.132Z,70.59
2019-05-12T14:26:33.551Z,69.69
2019-05-12T14:29:04.086Z,69.50
2019-05-12T14:31:36.269Z,69.44
2019-05-12T14:34:10.543Z,70.50
2019-05-12T14:36:38.847Z,72.34
2019-05-12T14:39:10.397Z,72.28
2019-05-12T14:41:44.394Z,71.80
2019-05-12T14:44:13.739Z,69.19
2019-05-12T14:46:49.251Z,67.01
2019-05-12T14:49:20.413Z,68.48
2019-05-12T14:51:48.607Z,66.86
2019-05-12T14:54:19.082Z,68.06
2019-05-12T14:56:55.443Z,67.94
2019-05-12T14:59:23.767Z,65.97
2019-05-12T15:01:59.137Z,65.63
2019-05-12T15:04:29.869Z,65.76
2019-05-12T15:06:59.750Z,66.04
2019-05-12T15:09:31.200Z,66.03
2019-05-12T15:12:03.607Z,66.24
2019-05-12T15:14:38.004Z,65.41
2019-05-12T15:17:05.909Z,66.83
2019-05-12T15:19:36.288Z,65.97
2019-05-12T15:22:10.281Z,67.62
2019-05-12T15:24:38.866Z,66.76
2019-05-12T15:27:09.256Z,65.05
2019-05-12T15:29:39.690Z,66.15
2019-05-12T15:32:10.175Z,66.27
2019-05-12T15:34:40.629Z,66.92
2019-05-12T15:37:11.035Z,67.31
2019-05-12T15:39:43.899Z,68.06
2019-05-12T15:42:14.234Z,68.95
2019-05-12T15:44:47.317Z,68.34
2019-05-12T15:47:16.935Z,69.99
2019-05-12T15:49:47.382Z,69.27
2019-05-12T15:52:17.788Z,69.60
2019-05-12T15:54:51.314Z,68.10
2019-05-12T15:57:20.343Z,68.78
2019-05-12T15:59:50.759Z,69.90
2019-05-12T16:02:23.374Z,71.60
2019-05-12T16:04:55.018Z,70.68
2019-05-12T16:07:29.705Z,70.05
2019-05-12T16:09:58.501Z,70.59
2019-05-12T16:12:28.925Z,70.12
2019-05-12T16:14:59.477Z,72.06
2019-05-12T16:17:30.013Z,71.89
2019-05-12T16:20:00.484Z,72.84
2019-05-12T16:22:37.293Z,72.75
2019-05-12T16:25:07.448Z,72.59
2019-05-12T16:27:37.854Z,71.90
2019-05-12T16:30:08.645Z,72.63
2019-05-12T16:32:43.062Z,71.50
2019-05-12T16:35:11.516Z,72.33
2019-05-12T16:37:44.174Z,72.54
2019-05-12T16:40:14.757Z,71.85
2019-05-12T16:42:53.537Z,73.40
2019-05-12T16:45:19.979Z,72.81
2019-05-12T16:47:49.517Z,73.96
2019-05-12T16:50:27.653Z,74.73
2019-05-12T16:52:53.552Z,74.60
2019-05-12T16:55:24.266Z,74.73
2019-05-12T16:57:56.149Z,74.35
2019-05-12T17:00:26.795Z,75.62
2019-05-12T17:02:58.039Z,75.18
2019-05-12T17:05:28.655Z,76.93
2019-05-12T17:07:59.933Z,77.35
2019-05-12T17:10:30.421Z,77.69
2019-05-12T17:13:00.843Z,78.26
2019-05-12T17:15:33.700Z,78.39
2019-05-12T17:18:04.326Z,78.38
2019-05-12T17:20:35.046Z,78.54
2019-05-12T17:23:05.473Z,78.71
2019-05-12T17:25:35.935Z,78.99
2019-05-12T17:28:06.369Z,80.56
2019-05-12T17:30:36.849Z,79.29
2019-05-12T17:33:07.276Z,79.40
2019-05-12T17:35:37.763Z,79.97
2019-05-12T17:38:11.710Z,79.58
2019-05-12T17:40:40.338Z,79.79
2019-05-12T17:43:12.030Z,80.40
2019-05-12T17:45:44.292Z,80.29
2019-05-12T17:48:14.707Z,81.18
2019-05-12T17:50:48.561Z,81.43
2019-05-12T17:53:17.843Z,80.39
2019-05-12T17:55:53.174Z,80.67
2019-05-12T17:58:20.535Z,80.61
2019-05-12T18:00:52.003Z,79.92
2019-05-12T18:03:25.492Z,79.67
2019-05-12T18:05:54.696Z,80.01
2019-05-12T18:08:32.448Z,80.27
2019-05-12T18:10:58.161Z,81.18
2019-05-12T18:13:28.562Z,82.10
2019-05-12T18:15:59.137Z,82.48
2019-05-12T18:18:32.735Z,83.35
2019-05-12T18:21:03.573Z,83.57
2019-05-12T18:23:34.525Z,83.78
2019-05-12T18:26:11.441Z,83.76
2019-05-12T18:28:37.119Z,84.09
2019-05-12T18:31:07.597Z,85.00
2019-05-12T18:33:50.879Z,84.71
2019-05-12T18:36:10.203Z,85.37
2019-05-12T18:38:40.634Z,85.63
2019-05-12T18:41:11.114Z,85.62
2019-05-12T18:43:43.493Z,85.36
2019-05-12T18:46:14.174Z,85.83
2019-05-12T18:48:44.669Z,85.99
2019-05-12T18:51:17.372Z,85.29
2019-05-12T18:53:47.251Z,85.82
2019-05-12T18:56:21.830Z,85.75
2019-05-12T18:58:49.872Z,85.81
2019-05-12T19:01:20.342Z,86.32
2019-05-12T19:03:51.307Z,87.04
2019-05-12T19:06:23.412Z,87.44
2019-05-12T19:08:54.831Z,87.20
2019-05-12T19:11:31.726Z,87.80
2019-05-12T19:13:57.610Z,87.93
2019-05-12T19:16:28.236Z,88.26
2019-05-12T19:18:58.673Z,88.59
2019-05-12T19:21:29.125Z,88.49
2019-05-12T19:23:59.569Z,89.17
2019-05-12T19:26:32.891Z,88.64
2019-05-12T19:29:04.019Z,89.46
2019-05-12T19:31:36.656Z,88.91
2019-05-12T19:34:18.031Z,89.17
2019-05-12T19:36:44.852Z,88.86
2019-05-12T19:39:10.885Z,89.06
2019-05-12T19:41:43.461Z,89.15
2019-05-12T19:44:13.650Z,88.52
2019-05-12T19:46:45.925Z,88.86
2019-05-12T19:49:20.205Z,89.29
2019-05-12T19:51:48.376Z,89.66
2019-05-12T19:54:19.335Z,89.58
2019-05-12T19:56:50.951Z,89.73
2019-05-12T19:59:23.501Z,89.96
2019-05-12T20:01:53.745Z,89.91
2019-05-12T20:04:33.517Z,90.48
2019-05-12T20:06:56.387Z,90.33
2019-05-12T20:09:27.655Z,90.13
2019-05-12T20:12:01.255Z,90.57
2019-05-12T20:14:30.283Z,90.41
2019-05-12T20:17:00.823Z,90.43
2019-05-12T20:19:31.238Z,90.69
2019-05-12T20:22:03.505Z,90.39
2019-05-12T20:24:33.736Z,89.90
2019-05-12T20:27:04.218Z,90.51
2019-05-12T20:29:35.321Z,90.18
2019-05-12T20:32:05.883Z,90.28
2019-05-12T20:34:48.402Z,90.11
2019-05-12T20:37:13.444Z,90.25
2019-05-12T20:39:40.583Z,89.99
2019-05-12T20:42:11.072Z,90.11
2019-05-12T20:44:43.594Z,90.08
2019-05-12T20:47:14.054Z,89.90
2019-05-12T20:49:50.932Z,90.01
2019-05-12T20:52:16.606Z,89.34
2019-05-12T20:54:49.113Z,89.01
2019-05-12T20:57:19.143Z,88.83
2019-05-12T20:59:49.591Z,88.83
2019-05-12T21:02:20.056Z,88.85
2019-05-12T21:05:00.611Z,89.13
2019-05-12T21:07:26.812Z,89.40
2019-05-12T21:09:55.635Z,88.82
2019-05-12T21:12:26.119Z,89.04
2019-05-12T21:15:12.320Z,88.63
2019-05-12T21:17:39.394Z,88.83
2019-05-12T21:20:00.919Z,88.76
2019-05-12T21:22:31.384Z,88.55
2019-05-12T21:25:03.974Z,88.48
2019-05-12T21:27:33.976Z,88.85
2019-05-12T21:30:10.357Z,88.47
2019-05-12T21:32:38.232Z,88.55
2019-05-12T21:35:19.375Z,89.44
2019-05-12T21:37:45.572Z,88.97
2019-05-12T21:40:14.887Z,89.25
2019-05-12T21:42:45.559Z,89.55
2019-05-12T21:45:20.170Z,89.14
2019-05-12T21:47:48.226Z,89.68
2019-05-12T21:50:24.276Z,89.22
2019-05-12T21:52:56.405Z,89.17
2019-05-12T21:55:26.050Z,89.53
2019-05-12T21:57:54.928Z,89.95
2019-05-12T22:00:34.706Z,89.95
2019-05-12T22:03:08.097Z,90.38
2019-05-12T22:05:50.355Z,90.11
2019-05-12T22:08:17.661Z,90.35
2019-05-12T22:10:44.766Z,90.33
2019-05-12T22:13:18.175Z,90.32
2019-05-12T22:15:51.546Z,90.62
2019-05-12T22:18:19.654Z,90.59
2019-05-12T22:20:54.418Z,90.81
2019-05-12T22:23:24.587Z,90.83
2019-05-12T22:25:58.056Z,90.65
2019-05-12T22:28:26.657Z,91.00
2019-05-12T22:30:57.053Z,90.83
2019-05-12T22:33:27.512Z,91.08
2019-05-12T22:36:04.844Z,90.82
2019-05-12T22:38:30.089Z,91.15
2019-05-12T22:41:00.524Z,90.82
2019-05-12T22:43:31.506Z,91.33
2019-05-12T22:46:04.540Z,91.22
2019-05-12T22:48:37.339Z,91.76
2019-05-12T22:51:17.491Z,91.80
2019-05-12T22:53:39.523Z,91.52
2019-05-12T22:56:17.818Z,91.50
2019-05-12T22:58:44.169Z,91.69
2019-05-12T23:01:14.590Z,91.79
2019-05-12T23:03:51.240Z,91.39
2019-05-12T23:06:23.527Z,91.39
2019-05-12T23:08:49.567Z,91.50
2019-05-12T23:11:23.795Z,91.33
2019-05-12T23:13:53.827Z,91.79
2019-05-12T23:16:27.664Z,91.49
2019-05-12T23:19:01.327Z,91.82
2019-05-12T23:21:28.777Z,92.18
2019-05-12T23:24:00.761Z,92.09
2019-05-12T23:26:35.650Z,92.28
2019-05-12T23:29:04.261Z,91.79
2019-05-12T23:31:34.821Z,91.45
2019-05-12T23:34:06.412Z,91.48
2019-05-12T23:36:39.182Z,91.39
2019-05-12T23:39:09.789Z,91.33
2019-05-12T23:41:40.257Z,91.33
2019-05-12T23:44:10.701Z,91.69
2019-05-12T23:46:43.568Z,91.87
2019-05-12T23:49:14.388Z,91.96
2019-05-12T23:51:44.871Z,91.86
2019-05-12T23:54:15.357Z,91.92
2019-05-12T23:56:45.788Z,91.97
2019-05-12T23:59:16.227Z,92.19
